Time;durP1;ratioP1;P1;durP2;ratioP2;P2;SDS_P1;SDS_P2;PMS_P1;PMS_P2;Temp;Humidity;BMP_temperature;BMP_pressure;BME280_temperature;BME280_humidity;BME280_pressure;Samples;Min_cycle;Max_cycle;Signal;HPM_P1;HPM_P2
2022/05/24 00:00:54;;;;;;;3.53;1.73;;;;;;;19.11;51.98;99131.69;4989790;28;20061;-75
2022/05/24 00:03:20;;;;;;;4.60;1.58;;;;;;;19.17;52.16;99115.25;4974016;28;20038;-76
2022/05/24 00:05:47;;;;;;;4.60;1.60;;;;;;;19.20;52.14;99124.91;4994159;28;20096;-75
2022/05/24 00:08:13;;;;;;;6.63;2.22;;;;;;;19.21;51.82;99122.13;4995126;28;20170;-76
2022/05/24 00:10:39;;;;;;;3.15;1.50;;;;;;;19.22;51.97;99133.69;4995297;28;20076;-76
2022/05/24 00:13:05;;;;;;;6.38;1.63;;;;;;;19.20;52.08;99128.47;4994766;28;20056;-76
2022/05/24 00:15:31;;;;;;;4.78;1.67;;;;;;;19.18;51.98;99124.16;4994942;28;20057;-75
2022/05/24 00:18:00;;;;;;;5.15;1.63;;;;;;;19.24;52.05;99132.63;4994688;28;20427;-76
2022/05/24 00:20:38;;;;;;;4.00;1.48;;;;;;;19.33;51.95;99127.66;4994931;28;20037;-75
2022/05/24 00:23:03;;;;;;;4.40;2.00;;;;;;;19.38;51.43;99121.03;4988225;28;20050;-76
2022/05/24 00:25:33;;;;;;;3.50;1.90;;;;;;;19.47;51.51;99124.94;5016785;22;20072;-76
2022/05/24 00:27:59;;;;;;;3.65;1.67;;;;;;;19.52;51.68;99128.19;5005071;28;20084;-76
2022/05/24 00:30:25;;;;;;;3.22;1.60;;;;;;;19.59;51.24;99115.25;5003410;28;20485;-76
2022/05/24 00:32:51;;;;;;;4.22;1.55;;;;;;;19.64;51.50;99124.69;5005839;28;20041;-76
2022/05/24 00:35:19;;;;;;;6.00;2.10;;;;;;;19.67;51.51;99118.31;5003357;28;20116;-76
2022/05/24 00:37:46;;;;;;;4.05;1.65;;;;;;;19.72;51.76;99118.00;5004743;28;20060;-76
2022/05/24 00:40:38;;;;;;;6.97;1.80;;;;;;;19.71;52.67;99125.19;5004903;28;20438;-76
2022/05/24 00:43:08;;;;;;;3.97;1.57;;;;;;;19.70;51.48;99124.34;5011177;28;20049;-76
2022/05/24 00:45:39;;;;;;;2.85;1.45;;;;;;;19.70;51.97;99118.97;5002537;28;20172;-76
2022/05/24 00:48:10;;;;;;;2.67;1.30;;;;;;;19.69;51.72;99111.88;5004728;28;20038;-76
2022/05/24 00:50:39;;;;;;;4.47;1.90;;;;;;;19.68;51.91;99109.34;5005093;28;20045;-76
2022/05/24 00:53:14;;;;;;;4.72;1.85;;;;;;;19.69;51.83;99111.88;5003889;28;20129;-76
2022/05/24 00:55:49;;;;;;;3.72;1.63;;;;;;;19.64;52.03;99108.63;5004210;28;20045;-77
2022/05/24 00:58:23;;;;;;;4.80;1.80;;;;;;;19.62;51.87;99107.91;5005942;28;20443;-77
2022/05/24 01:00:49;;;;;;;2.75;1.55;;;;;;;19.56;52.63;99110.09;5004024;28;20042;-77
2022/05/24 01:03:15;;;;;;;4.03;1.63;;;;;;;19.52;52.45;99112.13;5003614;28;20382;-77
2022/05/24 01:05:40;;;;;;;4.78;1.50;;;;;;;19.51;51.98;99115.75;5005160;28;20042;-77
2022/05/24 01:08:06;;;;;;;3.40;1.60;;;;;;;19.49;52.02;99117.66;5002247;28;20040;-77
2022/05/24 01:10:42;;;;;;;5.53;1.50;;;;;;;19.52;52.78;99119.28;5004315;28;20076;-77
2022/05/24 01:13:15;;;;;;;5.53;1.80;;;;;;;19.49;52.34;99123.91;5004383;28;20042;-77
2022/05/24 01:15:43;;;;;;;3.38;1.80;;;;;;;19.52;52.42;99124.63;5000713;28;20611;-77
2022/05/24 01:18:10;;;;;;;2.97;1.35;;;;;;;19.50;52.80;99124.75;5004531;28;20397;-77
2022/05/24 01:20:36;;;;;;;2.95;1.20;;;;;;;19.52;52.38;99135.31;5007012;28;20042;-76
2022/05/24 01:23:19;;;;;;;4.38;1.60;;;;;;;19.49;52.68;99123.91;5005004;28;20085;-76
2022/05/24 01:26:09;;;;;;;4.60;1.70;;;;;;;19.52;52.82;99136.22;5003294;28;20088;-76
2022/05/24 01:28:42;;;;;;;5.03;2.05;;;;;;;19.54;52.49;99128.91;5003411;28;20062;-76
2022/05/24 01:31:07;;;;;;;3.95;1.67;;;;;;;19.54;52.60;99128.91;5001664;28;20049;-76
2022/05/24 01:36:21;;;;;;;6.63;2.15;;;;;;;19.45;52.98;99129.53;5004717;28;20501;-76
2022/05/24 01:38:50;;;;;;;4.45;1.50;;;;;;;19.41;52.97;99136.03;5002047;28;20034;-76
2022/05/24 01:41:31;;;;;;;5.85;1.98;;;;;;;19.33;53.54;99131.16;5003178;28;20052;-76
2022/05/24 01:43:58;;;;;;;;;;;;;;;19.27;54.03;99140.47;5002635;28;20070;-76
2022/05/24 01:46:32;;;;;;;6.07;1.85;;;;;;;19.28;53.79;99143.97;5002777;28;19975;-76
2022/05/24 01:49:04;;;;;;;6.38;1.90;;;;;;;19.31;53.58;99130.44;5004307;28;20038;-76
2022/05/24 01:51:33;;;;;;;;;;;;;;;19.32;54.09;99133.97;5004299;28;20038;-76
2022/05/24 01:54:02;;;;;;;5.88;1.73;;;;;;;19.35;54.66;99139.97;5004650;28;19924;-76
2022/05/24 01:56:36;;;;;;;4.65;1.60;;;;;;;19.36;54.65;99140.81;5003934;28;20022;-76
2022/05/24 01:59:03;;;;;;;6.32;2.30;;;;;;;19.41;54.38;99141.38;5001659;28;20121;-76
2022/05/24 02:01:44;;;;;;;6.60;1.83;;;;;;;19.48;54.67;99142.72;5002918;28;20465;-76
2022/05/24 02:04:09;;;;;;;4.97;2.10;;;;;;;19.54;54.58;99149.47;5001376;28;20125;-76
2022/05/24 02:06:34;;;;;;;5.43;2.05;;;;;;;19.57;54.27;99143.91;5003497;28;20176;-76
2022/05/24 02:09:02;;;;;;;5.18;1.88;;;;;;;19.58;55.05;99146.50;5002371;28;20037;-77
2022/05/24 02:11:30;;;;;;;4.78;1.80;;;;;;;19.60;55.21;99139.25;5002031;28;20046;-76
2022/05/24 02:14:05;;;;;;;5.50;1.90;;;;;;;19.62;55.98;99142.69;5004444;28;20508;-76
2022/05/24 02:16:33;;;;;;;5.13;2.20;;;;;;;19.66;55.51;99138.88;5002096;28;20045;-77
2022/05/24 02:19:01;;;;;;;3.80;1.70;;;;;;;19.68;55.74;99142.31;5000514;28;20034;-76
2022/05/24 02:21:27;;;;;;;13.23;2.15;;;;;;;19.69;55.32;99141.34;5002135;28;20038;-76
2022/05/24 02:23:53;;;;;;;4.13;1.50;;;;;;;19.71;55.64;99141.25;5007341;28;20045;-76
2022/05/24 02:26:21;;;;;;;5.35;1.65;;;;;;;19.75;55.38;99145.41;5003445;28;20144;-76
2022/05/24 02:28:54;;;;;;;4.70;1.85;;;;;;;19.68;56.62;99147.66;5003691;28;20571;-77
2022/05/24 02:31:22;;;;;;;5.57;1.80;;;;;;;19.69;56.18;99149.38;5007149;28;20034;-76
2022/05/24 02:33:48;;;;;;;6.72;1.90;;;;;;;19.65;57.49;99150.50;5000695;28;20104;-76
2022/05/24 02:36:15;;;;;;;4.85;2.03;;;;;;;19.70;57.64;99153.78;5003084;28;20029;-76
2022/05/24 02:38:41;;;;;;;4.95;1.73;;;;;;;19.66;58.92;99154.03;5002132;28;20050;-76
2022/05/24 02:43:50;;;;;;;5.50;2.17;;;;;;;19.73;59.07;99158.06;5003914;28;20512;-76
2022/05/24 02:46:17;;;;;;;5.32;1.77;;;;;;;19.75;60.02;99160.63;5002418;28;20041;-76
2022/05/24 02:48:43;;;;;;;6.32;2.10;;;;;;;19.74;60.96;99159.78;5000884;28;20026;-76
2022/05/24 02:51:10;;;;;;;5.82;2.05;;;;;;;19.83;61.16;99166.34;5003328;28;20087;-76
2022/05/24 02:53:36;;;;;;;4.30;2.00;;;;;;;19.73;62.61;99166.09;5003775;28;20040;-76
2022/05/24 02:56:04;;;;;;;5.20;2.10;;;;;;;19.55;65.33;99164.59;5001491;28;20073;-76
2022/05/24 02:58:30;;;;;;;5.90;2.17;;;;;;;19.44;65.91;99162.59;5001245;28;20117;-76
2022/05/24 03:00:57;;;;;;;5.90;2.10;;;;;;;19.35;66.52;99165.88;5003003;28;20509;-76
2022/05/24 03:03:22;;;;;;;5.00;2.00;;;;;;;19.27;67.57;99169.03;5000084;28;20038;-76
2022/05/24 03:05:47;;;;;;;6.38;3.00;;;;;;;19.20;68.25;99168.56;5003105;28;20038;-76
2022/05/24 03:11:00;;;;;;;8.63;2.80;;;;;;;19.12;69.47;99170.84;5004923;28;20026;-76
2022/05/24 03:16:13;;;;;;;7.70;2.60;;;;;;;19.11;71.74;99173.63;5000422;28;20043;-76
2022/05/24 03:18:39;;;;;;;6.75;2.35;;;;;;;19.10;71.21;99172.78;5001795;28;20034;-76
2022/05/24 03:21:05;;;;;;;5.47;2.50;;;;;;;19.13;71.60;99177.09;5002069;28;20033;-76
2022/05/24 03:23:31;;;;;;;5.43;2.05;;;;;;;19.17;71.38;99186.59;5003802;28;20425;-76
2022/05/24 03:25:56;;;;;;;5.38;2.13;;;;;;;19.22;71.15;99192.53;5001165;28;20057;-76
2022/05/24 03:28:21;;;;;;;4.80;2.08;;;;;;;19.23;71.54;99189.78;5010959;28;20052;-76
2022/05/24 03:30:48;;;;;;;5.80;2.20;;;;;;;19.29;71.23;99193.00;5008349;28;20041;-76
2022/05/24 03:33:13;;;;;;;5.13;2.15;;;;;;;19.22;72.57;99193.38;5003626;28;20457;-76
2022/05/24 03:35:40;;;;;;;8.05;2.22;;;;;;;19.26;72.34;99189.56;5008255;28;20046;-76
2022/05/24 03:38:06;;;;;;;5.45;2.05;;;;;;;19.26;71.96;99194.06;5003848;28;20037;-76
2022/05/24 03:40:31;;;;;;;4.63;2.00;;;;;;;19.26;72.51;99194.91;5004007;28;20056;-76
2022/05/24 03:42:57;;;;;;;7.75;2.60;;;;;;;19.35;71.25;99192.63;5006874;28;20170;-77
2022/05/24 03:45:22;;;;;;;5.93;2.10;;;;;;;19.36;71.43;99194.31;5004714;28;20049;-76
2022/05/24 03:47:48;;;;;;;8.02;3.63;;;;;;;19.43;70.80;99201.00;5007422;28;20061;-76
2022/05/24 03:50:14;;;;;;;5.97;2.40;;;;;;;19.49;70.21;99197.94;5009811;28;20038;-76
2022/05/24 03:52:39;;;;;;;5.40;2.35;;;;;;;19.54;70.12;99205.66;5006505;28;20029;-76
2022/05/24 03:55:05;;;;;;;5.57;2.47;;;;;;;19.58;70.07;99213.41;5008873;28;20542;-76
2022/05/24 04:00:18;;;;;;;4.45;2.00;;;;;;;19.66;69.41;99218.28;5012486;28;20083;-76
2022/05/24 04:02:44;;;;;;;4.70;2.15;;;;;;;19.72;69.37;99217.03;5005247;28;20089;-76
2022/05/24 04:05:10;;;;;;;5.88;2.60;;;;;;;19.72;69.59;99217.03;5007955;28;20030;-76
2022/05/24 04:07:36;;;;;;;5.47;2.63;;;;;;;19.76;69.32;99219.44;5010405;28;20061;-76
2022/05/24 04:10:03;;;;;;;6.68;2.40;;;;;;;19.77;69.08;99215.78;5007888;28;20026;-76
2022/05/24 04:12:28;;;;;;;4.88;2.50;;;;;;;19.82;68.94;99218.16;5003921;28;20042;-76
2022/05/24 04:14:54;;;;;;;5.15;2.28;;;;;;;19.84;68.54;99219.78;5005116;28;20037;-76
2022/05/24 04:17:20;;;;;;;5.88;2.00;;;;;;;19.90;68.26;99221.19;5003954;28;20044;-78
2022/05/24 04:19:45;;;;;;;4.50;2.17;;;;;;;19.89;68.65;99232.88;5010379;28;20041;-76
2022/05/24 04:22:10;;;;;;;7.28;2.33;;;;;;;19.90;68.57;99234.59;5009818;28;20029;-76
2022/05/24 04:24:36;;;;;;;5.30;2.30;;;;;;;19.89;68.55;99232.88;5011840;28;20519;-76
2022/05/24 04:27:04;;;;;;;13.25;8.52;;;;;;;19.95;68.27;99245.00;5008594;28;20044;-76
2022/05/24 04:29:29;;;;;;;8.05;4.32;;;;;;;19.97;67.67;99246.63;5003097;28;20046;-76
2022/05/24 04:31:55;;;;;;;7.35;2.88;;;;;;;19.99;67.99;99252.75;5009634;28;20432;-76
2022/05/24 04:34:20;;;;;;;6.75;2.67;;;;;;;19.95;68.27;99245.84;5013833;28;20745;-76
2022/05/24 04:36:45;;;;;;;7.32;2.50;;;;;;;19.95;68.03;99255.72;5006258;28;20049;-76
2022/05/24 04:39:11;;;;;;;5.97;2.00;;;;;;;19.96;68.12;99263.63;5006310;28;20042;-76
2022/05/24 04:44:20;;;;;;;4.13;1.90;;;;;;;20.07;67.18;99268.31;5007883;28;20030;-76
2022/05/24 04:49:29;;;;;;;6.80;2.33;;;;;;;20.13;66.79;99268.75;5011624;28;20076;-76
2022/05/24 04:51:55;;;;;;;4.35;2.13;;;;;;;20.20;67.02;99271.91;5011257;28;20038;-76
2022/05/24 04:54:21;;;;;;;6.03;2.20;;;;;;;20.37;66.69;99270.78;5012629;28;20092;-76
2022/05/24 04:56:46;;;;;;;5.45;2.35;;;;;;;20.45;65.98;99271.13;5007360;28;20044;-76
2022/05/24 04:59:16;;;;;;;6.82;2.47;;;;;;;20.55;65.99;99272.25;5009396;28;20073;-76
2022/05/24 05:01:42;;;;;;;8.55;2.47;;;;;;;20.67;65.07;99269.69;5012025;28;20038;-76
2022/05/24 05:04:07;;;;;;;4.05;2.45;;;;;;;20.68;65.63;99266.06;5010528;28;20034;-76
2022/05/24 05:06:33;;;;;;;5.03;2.08;;;;;;;20.60;65.43;99263.06;5003821;28;20545;-76
2022/05/24 05:08:58;;;;;;;6.10;2.30;;;;;;;20.57;65.54;99269.47;5012496;28;20026;-76
2022/05/24 05:11:23;;;;;;;5.45;2.88;;;;;;;20.48;65.37;99259.34;5004782;28;20385;-76
2022/05/24 05:13:49;;;;;;;3.50;1.48;;;;;;;20.45;65.87;99259.53;5003163;28;20409;-76
2022/05/24 05:16:14;;;;;;;5.50;1.92;;;;;;;20.34;66.45;99266.47;5008195;28;20064;-76
2022/05/24 05:18:39;;;;;;;4.97;1.80;;;;;;;20.41;66.15;99269.63;5008765;28;20508;-76
2022/05/24 05:21:05;;;;;;;5.25;2.17;;;;;;;20.49;65.97;99269.09;5008612;28;20668;-76
2022/05/24 05:23:30;;;;;;;4.55;1.70;;;;;;;20.52;66.32;99269.75;5000440;28;20473;-76
2022/05/24 05:25:56;;;;;;;4.10;1.50;;;;;;;20.58;66.18;99274.72;5001873;28;20038;-76
2022/05/24 05:28:21;;;;;;;4.68;1.77;;;;;;;20.70;65.87;99277.56;5004404;28;20095;-76
2022/05/24 05:33:33;;;;;;;4.43;1.88;;;;;;;20.94;65.01;99283.06;5002320;28;20552;-76
2022/05/24 05:35:59;;;;;;;6.28;2.00;;;;;;;20.93;64.74;99289.38;5003337;28;20053;-76
2022/05/24 05:38:25;;;;;;;3.13;1.50;;;;;;;21.25;63.62;99289.84;5002442;28;20038;-76
2022/05/24 05:40:52;;;;;;;4.38;2.35;;;;;;;21.31;63.55;99293.91;5001963;28;20485;-76
2022/05/24 05:43:21;;;;;;;3.25;1.95;;;;;;;21.07;63.15;99304.53;5008154;28;20045;-76
2022/05/24 05:45:54;;;;;;;5.22;2.10;;;;;;;20.90;60.66;99336.03;5009484;28;20462;-76
2022/05/24 05:48:20;;;;;;;4.03;2.03;;;;;;;20.58;62.22;99325.66;5010992;28;20038;-76
2022/05/24 05:50:47;;;;;;;4.88;1.92;;;;;;;20.44;62.85;99331.03;5010960;28;20038;-76
2022/05/24 05:53:13;;;;;;;2.70;1.70;;;;;;;20.33;63.65;99322.84;5006623;28;20088;-76
2022/05/24 05:55:41;;;;;;;3.17;1.60;;;;;;;20.46;62.79;99331.81;5005871;28;20054;-76
2022/05/24 05:58:10;;;;;;;3.67;1.70;;;;;;;20.54;62.57;99329.50;5011273;28;20022;-76
2022/05/24 06:00:37;;;;;;;4.03;1.50;;;;;;;20.38;62.13;99334.09;5007491;28;20117;-76
2022/05/24 06:03:02;;;;;;;3.70;1.77;;;;;;;20.32;62.08;99334.53;5006358;28;20034;-76
2022/05/24 06:05:28;;;;;;;6.57;1.80;;;;;;;20.29;62.54;99332.06;5004488;28;20087;-76
2022/05/24 06:07:59;;;;;;;2.83;1.70;;;;;;;20.17;62.93;99335.50;5008122;28;20393;-76
2022/05/24 06:10:26;;;;;;;2.47;1.40;;;;;;;20.13;64.01;99346.44;5007399;28;20038;-76
2022/05/24 06:12:52;;;;;;;4.20;1.73;;;;;;;20.23;64.51;99354.75;5005397;28;20168;-76
2022/05/24 06:15:19;;;;;;;3.60;2.60;;;;;;;20.31;63.03;99365.81;5006308;28;20109;-76
2022/05/24 06:17:47;;;;;;;3.97;2.40;;;;;;;20.48;62.72;99367.38;5022212;28;20042;-76
2022/05/24 06:20:22;;;;;;;4.03;2.70;;;;;;;20.58;61.75;99371.22;5004668;28;20042;-76
2022/05/24 06:22:57;;;;;;;3.75;2.70;;;;;;;20.58;62.64;99371.22;5079408;28;20324;-75
2022/05/24 06:25:25;;;;;;;4.25;3.00;;;;;;;20.56;61.84;99397.25;5077252;28;20055;-75
2022/05/24 06:27:51;;;;;;;5.10;3.00;;;;;;;20.46;62.19;99389.88;5091612;22;20059;-76
2022/05/24 06:30:20;;;;;;;4.55;2.80;;;;;;;20.44;61.85;99390.00;5063108;28;20035;-75
2022/05/24 06:32:45;;;;;;;5.28;2.80;;;;;;;20.51;62.03;99388.66;5047478;28;20033;-76
2022/05/24 06:35:11;;;;;;;3.58;2.28;;;;;;;20.61;61.47;99383.56;5064988;28;20029;-76
2022/05/24 06:37:36;;;;;;;3.88;2.80;;;;;;;20.81;62.38;99387.63;5065714;28;20064;-76
2022/05/24 06:40:02;;;;;;;4.70;2.85;;;;;;;20.84;61.63;99392.75;5064822;28;20064;-76
2022/05/24 06:42:27;;;;;;;4.40;2.78;;;;;;;20.88;60.13;99378.19;5062711;28;20140;-76
2022/05/24 06:44:53;;;;;;;3.72;2.42;;;;;;;20.86;59.74;99388.16;5063249;28;20040;-76
2022/05/24 06:47:18;;;;;;;3.50;2.30;;;;;;;20.94;59.00;99393.03;5059916;28;20044;-76
2022/05/24 06:49:43;;;;;;;3.97;2.30;;;;;;;21.06;58.59;99391.31;5057530;28;20123;-76
2022/05/24 06:52:08;;;;;;;3.55;2.40;;;;;;;21.06;57.65;99396.69;5056277;28;20041;-76
2022/05/24 06:54:35;;;;;;;5.22;2.78;;;;;;;20.96;57.68;99405.38;5059909;28;20521;-76
2022/05/24 06:57:02;;;;;;;3.40;2.10;;;;;;;20.98;57.69;99398.06;5062786;28;20044;-76
2022/05/24 07:02:26;;;;;;;4.25;2.95;;;;;;;21.25;57.68;99418.63;5052645;28;20036;-76
2022/05/24 07:05:23;;;;;;;5.10;2.83;;;;;;;21.38;57.72;99406.13;5061524;28;20053;-75
2022/05/24 07:07:49;;;;;;;4.68;3.45;;;;;;;21.38;57.42;99419.53;5057066;28;20492;-76
2022/05/24 07:10:19;;;;;;;4.05;3.33;;;;;;;21.42;56.81;99406.75;5033851;28;20078;-76
2022/05/24 07:12:45;;;;;;;4.25;2.70;;;;;;;21.39;56.82;99415.88;5058485;28;20116;-76
2022/05/24 07:15:11;;;;;;;4.18;3.30;;;;;;;21.45;56.96;99419.97;5063695;28;20048;-76
2022/05/24 07:17:37;;;;;;;5.05;2.97;;;;;;;21.47;56.49;99420.72;5059429;28;20098;-76
2022/05/24 07:20:03;;;;;;;4.78;3.13;;;;;;;21.39;56.11;99429.31;5049554;28;20068;-76
2022/05/24 07:22:28;;;;;;;5.65;3.40;;;;;;;21.40;56.31;99431.00;5055543;28;20086;-76
2022/05/24 07:24:55;;;;;;;6.53;3.47;;;;;;;21.54;56.16;99430.09;5058595;28;20033;-76
2022/05/24 07:27:21;;;;;;;4.55;3.17;;;;;;;21.76;55.95;99431.28;5048529;28;20546;-76
2022/05/24 07:29:47;;;;;;;4.80;3.67;;;;;;;21.93;55.36;99435.44;5056801;28;20076;-76
2022/05/24 07:32:13;;;;;;;7.65;3.55;;;;;;;21.75;55.81;99441.16;5055227;28;20103;-76
2022/05/24 07:34:38;;;;;;;6.63;3.50;;;;;;;21.54;55.73;99448.03;5044801;28;20488;-76
2022/05/24 07:37:06;;;;;;;5.32;3.38;;;;;;;21.53;55.81;99440.91;5024598;28;20037;-76
2022/05/24 07:39:32;;;;;;;7.05;3.65;;;;;;;21.61;55.86;99439.44;5042371;28;20033;-76
2022/05/24 07:47:20;;;;;;;4.18;3.28;;;;;;;21.48;56.01;99454.66;5045082;28;20032;-76
2022/05/24 07:49:46;;;;;;;3.72;2.80;;;;;;;21.69;55.41;99460.38;5034263;28;20493;-76
2022/05/24 07:52:11;;;;;;;4.43;3.45;;;;;;;21.75;55.05;99461.78;5047478;28;20032;-76
2022/05/24 07:54:37;;;;;;;5.03;2.97;;;;;;;21.78;54.72;99457.06;5044025;28;20123;-76
2022/05/24 07:57:03;;;;;;;5.25;2.85;;;;;;;21.77;54.19;99455.34;5049517;28;20035;-76
2022/05/24 07:59:29;;;;;;;5.78;2.92;;;;;;;21.96;55.25;99459.44;5046568;28;20017;-76
2022/05/24 08:01:54;;;;;;;5.30;2.70;;;;;;;22.05;54.29;99462.31;5029928;28;20116;-76
2022/05/24 08:04:20;;;;;;;4.97;3.20;;;;;;;21.93;54.02;99479.31;5049358;28;20119;-77
2022/05/24 08:06:46;;;;;;;5.15;3.00;;;;;;;21.75;53.66;99468.03;5047856;28;20474;-76
2022/05/24 08:09:12;;;;;;;3.95;2.75;;;;;;;21.61;54.47;99474.34;5046547;28;20089;-76
2022/05/24 08:11:37;;;;;;;4.00;2.63;;;;;;;21.49;54.67;99477.88;5047444;28;20029;-76
2022/05/24 08:14:03;;;;;;;4.80;2.80;;;;;;;21.66;54.84;99482.06;5051820;28;20064;-76
2022/05/24 08:16:30;;;;;;;5.40;3.25;;;;;;;21.69;54.10;99481.00;5044371;28;20045;-77
2022/05/24 08:18:58;;;;;;;4.47;2.70;;;;;;;21.63;55.04;99482.28;5046838;28;20387;-76
2022/05/24 08:21:24;;;;;;;5.53;2.67;;;;;;;21.69;54.47;99462.19;5027422;28;20507;-76
2022/05/24 08:23:49;;;;;;;5.03;2.70;;;;;;;21.92;55.02;99468.66;5042430;28;20047;-76
2022/05/24 08:26:15;;;;;;;4.18;3.03;;;;;;;22.08;53.60;99469.28;5044566;28;20041;-76
2022/05/24 08:28:43;;;;;;;4.82;2.72;;;;;;;22.42;52.87;99465.09;5043579;28;20045;-77
2022/05/24 08:31:10;;;;;;;5.22;2.75;;;;;;;22.61;51.85;99467.31;5048978;28;20064;-77
2022/05/24 08:33:36;;;;;;;4.65;2.72;;;;;;;22.75;51.27;99472.53;5047551;28;20037;-76
2022/05/24 08:36:01;;;;;;;3.85;2.80;;;;;;;22.78;51.99;99463.38;5046057;28;20041;-76
2022/05/24 08:38:28;;;;;;;4.47;2.55;;;;;;;22.88;51.17;99474.34;5044316;28;20033;-77
2022/05/24 08:40:58;;;;;;;3.58;2.05;;;;;;;22.98;51.15;99480.78;5050949;28;20037;-75
2022/05/24 08:43:32;;;;;;;4.25;2.53;;;;;;;22.66;50.49;99489.38;5030093;28;20055;-76
2022/05/24 08:48:54;;;;;;;4.68;3.20;;;;;;;22.84;51.52;99489.81;5046082;28;20048;-76
2022/05/24 08:51:28;;;;;;;5.05;2.45;;;;;;;23.06;50.09;99489.13;5048015;28;20020;-77
2022/05/24 08:53:56;;;;;;;2.92;2.00;;;;;;;23.04;49.89;99487.53;5046332;28;20352;-76
2022/05/24 08:56:30;;;;;;;3.88;2.40;;;;;;;23.14;50.43;99488.56;5027011;28;20060;-76
2022/05/24 08:59:02;;;;;;;3.88;2.15;;;;;;;23.51;49.29;99489.31;5045188;28;20037;-76
2022/05/24 09:01:33;;;;;;;4.72;2.45;;;;;;;23.76;48.32;99490.16;5051405;28;20108;-76
2022/05/24 09:04:00;;;;;;;3.73;2.40;;;;;;;23.36;49.15;99499.41;5046662;28;20406;-76
2022/05/24 09:07:03;;;;;;;3.95;2.65;;;;;;;22.95;49.27;99507.84;5051979;28;20054;-76
2022/05/24 09:09:37;;;;;;;4.97;2.33;;;;;;;22.48;51.32;99510.38;5045760;28;20032;-77
2022/05/24 09:12:20;;;;;;;4.00;2.47;;;;;;;22.26;51.64;99516.41;5024124;28;20124;-76
2022/05/24 09:14:56;;;;;;;4.57;2.20;;;;;;;22.21;53.08;99515.84;5045249;28;20037;-76
2022/05/24 09:17:47;;;;;;;4.13;2.80;;;;;;;22.24;51.56;99523.72;5034091;28;20456;-76
2022/05/24 09:20:26;;;;;;;4.13;2.40;;;;;;;22.04;52.70;99525.09;5042960;28;20091;-76
2022/05/24 09:23:09;;;;;;;3.70;2.60;;;;;;;22.20;53.05;99526.72;5042322;28;20053;-76
2022/05/24 09:25:34;;;;;;;3.72;2.45;;;;;;;22.58;51.32;99525.81;5044032;28;20049;-77
2022/05/24 09:27:59;;;;;;;4.25;2.65;;;;;;;22.81;50.77;99524.16;5042357;28;20041;-77
2022/05/24 09:30:31;;;;;;;3.40;2.42;;;;;;;23.08;50.29;99532.94;5045063;28;20072;-76
2022/05/24 09:33:25;;;;;;;4.60;2.90;;;;;;;23.34;48.96;99535.50;5042584;28;20106;-76
2022/05/24 09:35:57;;;;;;;7.22;2.67;;;;;;;23.14;49.94;99539.69;5043377;28;20744;-76
2022/05/24 09:38:32;;;;;;;4.72;2.30;;;;;;;23.01;50.38;99545.13;5024680;28;20664;-76
2022/05/24 09:41:18;;;;;;;6.90;2.13;;;;;;;22.83;50.54;99536.53;5042565;28;20408;-76
2022/05/24 09:43:58;;;;;;;5.68;2.70;;;;;;;22.89;50.21;99537.91;5042200;28;20041;-77
2022/05/24 09:46:26;;;;;;;3.50;2.22;;;;;;;22.87;49.97;99538.03;5027795;28;20044;-77
2022/05/24 09:49:01;;;;;;;4.32;2.33;;;;;;;22.64;49.72;99537.00;5047399;28;20063;-76
2022/05/24 09:51:47;;;;;;;3.30;2.25;;;;;;;22.39;49.89;99542.41;5029005;28;20491;-76
2022/05/24 09:54:16;;;;;;;3.45;2.10;;;;;;;22.52;50.64;99535.19;5027412;28;20052;-76
2022/05/24 09:57:00;;;;;;;3.95;2.60;;;;;;;22.87;49.02;99531.78;5041867;28;20041;-76
2022/05/24 09:59:26;;;;;;;2.92;1.98;;;;;;;23.07;49.22;99533.03;5042899;28;20040;-76
2022/05/24 10:01:53;;;;;;;3.55;2.42;;;;;;;22.82;47.96;99528.56;5023825;28;20045;-76
2022/05/24 10:04:19;;;;;;;3.40;2.20;;;;;;;22.81;49.65;99534.94;5044355;28;20033;-76
2022/05/24 10:07:19;;;;;;;4.57;3.05;;;;;;;22.99;49.51;99535.44;5041865;28;20437;-76
2022/05/24 10:09:53;;;;;;;5.75;3.00;;;;;;;23.12;48.98;99542.50;5046941;28;20458;-76
2022/05/24 10:12:40;;;;;;;5.15;2.72;;;;;;;23.17;49.79;99534.09;5050787;28;20025;-79
2022/05/24 10:15:21;;;;;;;3.95;2.75;;;;;;;23.24;48.33;99526.41;5037725;28;20091;-79
2022/05/24 10:18:05;;;;;;;4.32;2.70;;;;;;;23.25;48.74;99537.06;5039756;28;20387;-78
2022/05/24 10:20:47;;;;;;;7.50;3.35;;;;;;;23.11;48.15;99521.94;5056002;28;20057;-79
2022/05/24 10:23:38;;;;;;;4.07;2.92;;;;;;;23.12;48.08;99531.72;5043942;28;20407;-79
2022/05/24 10:26:26;;;;;;;4.70;2.90;;;;;;;23.21;47.48;99530.19;5056665;28;20032;-79
2022/05/24 10:29:10;;;;;;;5.68;2.83;;;;;;;23.65;46.97;99527.81;5042606;28;20408;-78
2022/05/24 10:31:56;;;;;;;4.38;2.80;;;;;;;24.11;46.01;99524.31;5037250;28;20057;-79
2022/05/24 10:40:50;;;;;;;4.28;2.45;;;;;;;24.82;44.79;99528.50;5056637;28;20038;-78
2022/05/24 10:43:48;;;;;;;5.32;2.67;;;;;;;25.28;43.41;99532.84;5043633;28;20048;-79
2022/05/24 10:46:16;;;;;;;4.55;2.72;;;;;;;25.43;42.92;99527.13;5027528;28;20048;-79
2022/05/24 10:49:10;;;;;;;2.97;2.20;;;;;;;25.28;43.65;99510.38;5058785;28;20029;-78
2022/05/24 10:51:47;;;;;;;2.90;1.80;;;;;;;25.47;41.34;99513.25;5054224;28;20044;-79
2022/05/24 10:54:22;;;;;;;4.50;2.80;;;;;;;25.89;41.60;99509.75;5049082;28;20032;-79
2022/05/24 10:57:22;;;;;;;4.25;2.65;;;;;;;26.33;39.86;99510.41;5038389;28;20048;-80
2022/05/24 11:00:14;;;;;;;3.50;1.75;;;;;;;26.60;39.56;99512.56;5046422;28;20045;-79
2022/05/24 11:02:57;;;;;;;3.50;2.05;;;;;;;26.34;39.49;99514.84;5056696;28;20043;-79
2022/05/24 11:05:32;;;;;;;2.65;1.52;;;;;;;26.62;38.69;99503.31;5052352;28;20041;-79
2022/05/24 11:08:09;;;;;;;3.95;1.90;;;;;;;26.77;39.64;99490.25;5042820;28;20091;-79
2022/05/24 11:10:39;;;;;;;3.20;1.65;;;;;;;26.79;39.28;99498.25;5058149;28;20033;-79
2022/05/24 11:13:15;;;;;;;3.70;2.33;;;;;;;26.46;39.38;99508.34;5040488;28;20097;-79
2022/05/24 11:15:46;;;;;;;3.88;2.17;;;;;;;26.36;39.99;99518.28;5027017;28;20049;-79
2022/05/24 11:18:25;;;;;;;7.60;3.22;;;;;;;26.52;40.00;99517.81;5050493;28;20126;-78
2022/05/24 11:21:05;;;;;;;3.20;1.80;;;;;;;26.81;39.21;99518.75;5041140;28;20056;-78
2022/05/24 11:23:41;;;;;;;3.17;1.88;;;;;;;27.13;38.10;99527.69;5040816;28;20041;-79
2022/05/24 11:26:24;;;;;;;2.65;1.65;;;;;;;26.93;37.89;99527.63;5041498;28;20493;-79
2022/05/24 11:29:23;;;;;;;2.72;1.80;;;;;;;26.87;37.55;99528.19;5045117;28;20071;-79
2022/05/24 11:31:52;;;;;;;3.20;1.67;;;;;;;26.58;38.55;99545.16;5059911;28;20056;-79
2022/05/24 11:34:26;;;;;;;4.95;1.60;;;;;;;26.66;37.50;99542.63;5044733;28;20028;-79
2022/05/24 11:37:04;;;;;;;4.65;2.40;;;;;;;27.45;36.60;99544.56;5040952;28;20040;-79
2022/05/24 11:39:35;;;;;;;5.30;2.40;;;;;;;28.38;35.25;99537.63;5057094;28;20443;-79
2022/05/24 11:42:21;;;;;;;2.25;1.60;;;;;;;28.62;34.15;99531.72;5056962;28;20041;-79
2022/05/24 11:44:48;;;;;;;4.30;1.50;;;;;;;28.39;33.48;99542.03;5058427;28;20180;-80
2022/05/24 11:47:35;;;;;;;4.35;2.00;;;;;;;28.01;34.17;99545.72;5063501;28;20041;-79
2022/05/24 11:50:04;;;;;;;3.00;1.50;;;;;;;27.68;35.37;99536.16;5056622;28;20097;-79
2022/05/24 11:52:46;;;;;;;4.05;1.20;;;;;;;27.48;34.88;99547.00;5056990;28;20026;-79
2022/05/24 11:55:31;;;;;;;;;;;;;;;27.25;35.64;99549.13;5064721;28;20115;-79
2022/05/24 11:58:05;;;;;;;2.95;1.10;;;;;;;26.78;35.72;99542.56;5058276;28;19916;-79
2022/05/24 12:00:33;;;;;;;2.78;1.20;;;;;;;26.83;35.49;99548.41;5063295;28;20411;-78
2022/05/24 12:08:38;;;;;;;3.38;1.65;;;;;;;26.29;36.74;99549.56;5046087;28;20040;-79
2022/05/24 12:11:30;;;;;;;2.38;1.30;;;;;;;26.46;36.65;99546.22;5061220;28;20052;-79
2022/05/24 12:14:10;;;;;;;2.05;1.13;;;;;;;26.58;36.95;99550.59;5064860;28;20040;-79
2022/05/24 12:16:40;;;;;;;2.38;1.27;;;;;;;26.56;35.64;99541.72;5059295;28;20075;-79
2022/05/24 12:19:08;;;;;;;2.42;1.20;;;;;;;26.36;36.64;99546.19;5061721;28;20043;-79
2022/05/24 12:21:40;;;;;;;4.10;1.38;;;;;;;26.24;36.29;99549.94;5041829;28;20041;-78
2022/05/24 12:24:47;;;;;;;2.95;1.13;;;;;;;26.02;36.00;99554.53;5029163;28;20039;-79
2022/05/24 12:27:34;;;;;;;1.23;0.70;;;;;;;26.02;36.05;99548.25;4949393;29;20050;-79
2022/05/24 12:30:02;;;;;;;4.95;0.93;;;;;;;25.92;37.16;99553.59;4941207;29;20051;-79
2022/05/24 12:32:30;;;;;;;2.67;1.20;;;;;;;25.84;37.40;99553.41;5038783;22;20046;-75
2022/05/24 12:35:07;;;;;;;2.80;1.05;;;;;;;25.51;37.64;99559.75;5071040;28;20425;-75